sensor_id;sensor_type;location;lat;lon;timestamp;temperature;humidity
64652;HTU21D;51062;45.120;37.660;2024-01-30T00:00:12;-1.86;79.53
64652;HTU21D;51062;45.120;37.660;2024-01-30T00:02:37;-1.89;79.56
64652;HTU21D;51062;45.120;37.660;2024-01-30T00:05:03;-1.90;79.55
64652;HTU21D;51062;45.120;37.660;2024-01-30T00:07:29;-1.90;79.56
64652;HTU21D;51062;45.120;37.660;2024-01-30T00:09:55;-1.93;79.50
64652;HTU21D;51062;45.120;37.660;2024-01-30T00:12:21;-1.94;79.49
64652;HTU21D;51062;45.120;37.660;2024-01-30T00:14:47;-1.99;79.41
64652;HTU21D;51062;45.120;37.660;2024-01-30T00:17:14;-2.03;79.40
64652;HTU21D;51062;45.120;37.660;2024-01-30T00:19:40;-2.06;79.37
64652;HTU21D;51062;45.120;37.660;2024-01-30T00:22:06;-2.10;79.35
64652;HTU21D;51062;45.120;37.660;2024-01-30T00:24:33;-2.13;79.40
64652;HTU21D;51062;45.120;37.660;2024-01-30T00:26:59;-2.15;79.39
64652;HTU21D;51062;45.120;37.660;2024-01-30T00:29:24;-2.21;79.40
64652;HTU21D;51062;45.120;37.660;2024-01-30T00:31:55;-2.23;79.43
64652;HTU21D;51062;45.120;37.660;2024-01-30T00:34:20;-2.26;79.43
64652;HTU21D;51062;45.120;37.660;2024-01-30T00:36:47;-2.30;79.30
64652;HTU21D;51062;45.120;37.660;2024-01-30T00:39:13;-2.36;79.27
64652;HTU21D;51062;45.120;37.660;2024-01-30T00:41:41;-2.42;79.21
64652;HTU21D;51062;45.120;37.660;2024-01-30T00:44:07;-2.47;79.27
64652;HTU21D;51062;45.120;37.660;2024-01-30T00:46:33;-2.49;79.42
64652;HTU21D;51062;45.120;37.660;2024-01-30T00:48:58;-2.47;79.55
64652;HTU21D;51062;45.120;37.660;2024-01-30T00:51:24;-2.47;79.56
64652;HTU21D;51062;45.120;37.660;2024-01-30T00:53:50;-2.47;79.59
64652;HTU21D;51062;45.120;37.660;2024-01-30T00:56:16;-2.45;79.62
64652;HTU21D;51062;45.120;37.660;2024-01-30T00:58:43;-2.44;79.64
64652;HTU21D;51062;45.120;37.660;2024-01-30T01:01:09;-2.46;79.60
64652;HTU21D;51062;45.120;37.660;2024-01-30T01:03:35;-2.46;79.64
64652;HTU21D;51062;45.120;37.660;2024-01-30T01:06:01;-2.46;79.60
64652;HTU21D;51062;45.120;37.660;2024-01-30T01:08:27;-2.49;79.56
64652;HTU21D;51062;45.120;37.660;2024-01-30T01:10:53;-2.50;79.57
64652;HTU21D;51062;45.120;37.660;2024-01-30T01:13:19;-2.52;79.60
64652;HTU21D;51062;45.120;37.660;2024-01-30T01:15:45;-2.53;79.67
64652;HTU21D;51062;45.120;37.660;2024-01-30T01:18:11;-2.53;79.70
64652;HTU21D;51062;45.120;37.660;2024-01-30T01:20:37;-2.54;79.72
64652;HTU21D;51062;45.120;37.660;2024-01-30T01:23:03;-2.58;79.69
64652;HTU21D;51062;45.120;37.660;2024-01-30T01:25:29;-2.63;79.68
64652;HTU21D;51062;45.120;37.660;2024-01-30T01:27:55;-2.67;79.69
64652;HTU21D;51062;45.120;37.660;2024-01-30T01:30:21;-2.72;79.73
64652;HTU21D;51062;45.120;37.660;2024-01-30T01:32:50;-2.76;79.72
64652;HTU21D;51062;45.120;37.660;2024-01-30T01:35:21;-2.82;79.76
64652;HTU21D;51062;45.120;37.660;2024-01-30T01:37:48;-2.87;79.81
64652;HTU21D;51062;45.120;37.660;2024-01-30T01:40:23;-2.91;79.86
64652;HTU21D;51062;45.120;37.660;2024-01-30T01:42:52;-2.95;79.96
64652;HTU21D;51062;45.120;37.660;2024-01-30T01:45:19;-2.94;80.04
64652;HTU21D;51062;45.120;37.660;2024-01-30T01:47:46;-2.93;80.04
64652;HTU21D;51062;45.120;37.660;2024-01-30T01:50:13;-2.94;80.08
64652;HTU21D;51062;45.120;37.660;2024-01-30T01:52:40;-2.96;80.07
64652;HTU21D;51062;45.120;37.660;2024-01-30T01:55:06;-2.98;80.04
64652;HTU21D;51062;45.120;37.660;2024-01-30T01:57:37;-3.03;80.01
64652;HTU21D;51062;45.120;37.660;2024-01-30T02:00:03;-3.07;79.97
64652;HTU21D;51062;45.120;37.660;2024-01-30T02:02:35;-3.12;79.98
64652;HTU21D;51062;45.120;37.660;2024-01-30T02:05:01;-3.17;79.95
64652;HTU21D;51062;45.120;37.660;2024-01-30T02:07:27;-3.21;79.93
64652;HTU21D;51062;45.120;37.660;2024-01-30T02:09:53;-3.24;79.92
64652;HTU21D;51062;45.120;37.660;2024-01-30T02:12:19;-3.30;79.91
64652;HTU21D;51062;45.120;37.660;2024-01-30T02:14:45;-3.34;79.92
64652;HTU21D;51062;45.120;37.660;2024-01-30T02:17:12;-3.38;79.96
64652;HTU21D;51062;45.120;37.660;2024-01-30T02:19:38;-3.39;79.98
64652;HTU21D;51062;45.120;37.660;2024-01-30T02:22:04;-3.40;79.98
64652;HTU21D;51062;45.120;37.660;2024-01-30T02:24:30;-3.42;80.00
64652;HTU21D;51062;45.120;37.660;2024-01-30T02:26:56;-3.45;79.99
64652;HTU21D;51062;45.120;37.660;2024-01-30T02:29:22;-3.47;79.99
64652;HTU21D;51062;45.120;37.660;2024-01-30T02:31:48;-3.49;79.98
64652;HTU21D;51062;45.120;37.660;2024-01-30T02:34:14;-3.49;79.99
64652;HTU21D;51062;45.120;37.660;2024-01-30T02:36:43;-3.50;80.01
64652;HTU21D;51062;45.120;37.660;2024-01-30T02:39:09;-3.52;80.00
64652;HTU21D;51062;45.120;37.660;2024-01-30T02:41:35;-3.53;80.02
64652;HTU21D;51062;45.120;37.660;2024-01-30T02:44:01;-3.56;80.06
64652;HTU21D;51062;45.120;37.660;2024-01-30T02:46:28;-3.56;80.10
64652;HTU21D;51062;45.120;37.660;2024-01-30T02:48:53;-3.57;80.11
64652;HTU21D;51062;45.120;37.660;2024-01-30T02:51:19;-3.57;80.11
64652;HTU21D;51062;45.120;37.660;2024-01-30T02:53:45;-3.58;80.11
64652;HTU21D;51062;45.120;37.660;2024-01-30T02:56:11;-3.61;80.11
64652;HTU21D;51062;45.120;37.660;2024-01-30T02:58:39;-3.62;80.10
64652;HTU21D;51062;45.120;37.660;2024-01-30T03:01:05;-3.65;80.11
64652;HTU21D;51062;45.120;37.660;2024-01-30T03:03:31;-3.66;80.14
64652;HTU21D;51062;45.120;37.660;2024-01-30T03:05:57;-3.67;80.13
64652;HTU21D;51062;45.120;37.660;2024-01-30T03:08:23;-3.69;80.14
64652;HTU21D;51062;45.120;37.660;2024-01-30T03:10:49;-3.70;80.14
64652;HTU21D;51062;45.120;37.660;2024-01-30T03:13:15;-3.72;80.16
64652;HTU21D;51062;45.120;37.660;2024-01-30T03:15:41;-3.75;80.20
64652;HTU21D;51062;45.120;37.660;2024-01-30T03:18:06;-3.77;80.23
64652;HTU21D;51062;45.120;37.660;2024-01-30T03:20:33;-3.78;80.24
64652;HTU21D;51062;45.120;37.660;2024-01-30T03:22:59;-3.79;80.25
64652;HTU21D;51062;45.120;37.660;2024-01-30T03:25:25;-3.80;80.29
64652;HTU21D;51062;45.120;37.660;2024-01-30T03:27:51;-3.81;80.28
64652;HTU21D;51062;45.120;37.660;2024-01-30T03:30:17;-3.83;80.31
64652;HTU21D;51062;45.120;37.660;2024-01-30T03:32:43;-3.84;80.36
64652;HTU21D;51062;45.120;37.660;2024-01-30T03:35:09;-3.85;80.36
64652;HTU21D;51062;45.120;37.660;2024-01-30T03:37:35;-3.86;80.36
64652;HTU21D;51062;45.120;37.660;2024-01-30T03:40:02;-3.87;80.40
64652;HTU21D;51062;45.120;37.660;2024-01-30T03:42:28;-3.89;80.40
64652;HTU21D;51062;45.120;37.660;2024-01-30T03:44:54;-3.91;80.42
64652;HTU21D;51062;45.120;37.660;2024-01-30T03:47:20;-3.91;80.42
64652;HTU21D;51062;45.120;37.660;2024-01-30T03:49:46;-3.94;80.43
64652;HTU21D;51062;45.120;37.660;2024-01-30T03:52:12;-3.94;80.46
64652;HTU21D;51062;45.120;37.660;2024-01-30T03:54:38;-3.96;80.45
64652;HTU21D;51062;45.120;37.660;2024-01-30T03:57:05;-3.97;80.47
64652;HTU21D;51062;45.120;37.660;2024-01-30T03:59:31;-3.98;80.50
64652;HTU21D;51062;45.120;37.660;2024-01-30T04:01:57;-3.97;80.56
64652;HTU21D;51062;45.120;37.660;2024-01-30T04:04:23;-3.97;80.58
64652;HTU21D;51062;45.120;37.660;2024-01-30T04:06:48;-3.95;80.59
64652;HTU21D;51062;45.120;37.660;2024-01-30T04:09:14;-3.97;80.58
64652;HTU21D;51062;45.120;37.660;2024-01-30T04:11:41;-3.96;80.60
64652;HTU21D;51062;45.120;37.660;2024-01-30T04:14:07;-3.95;80.56
64652;HTU21D;51062;45.120;37.660;2024-01-30T04:16:33;-3.96;80.51
64652;HTU21D;51062;45.120;37.660;2024-01-30T04:18:59;-3.97;80.52
64652;HTU21D;51062;45.120;37.660;2024-01-30T04:21:25;-3.99;80.54
64652;HTU21D;51062;45.120;37.660;2024-01-30T04:23:51;-3.99;80.56
64652;HTU21D;51062;45.120;37.660;2024-01-30T04:26:17;-4.01;80.55
64652;HTU21D;51062;45.120;37.660;2024-01-30T04:28:46;-4.05;80.59
64652;HTU21D;51062;45.120;37.660;2024-01-30T04:31:12;-4.06;80.62
64652;HTU21D;51062;45.120;37.660;2024-01-30T04:33:38;-4.08;80.65
64652;HTU21D;51062;45.120;37.660;2024-01-30T04:36:04;-4.10;80.66
64652;HTU21D;51062;45.120;37.660;2024-01-30T04:38:31;-4.12;80.68
64652;HTU21D;51062;45.120;37.660;2024-01-30T04:40:57;-4.14;80.72
64652;HTU21D;51062;45.120;37.660;2024-01-30T04:43:23;-4.15;80.74
64652;HTU21D;51062;45.120;37.660;2024-01-30T04:45:49;-4.15;80.77
64652;HTU21D;51062;45.120;37.660;2024-01-30T04:48:15;-4.17;80.78
64652;HTU21D;51062;45.120;37.660;2024-01-30T04:50:41;-4.17;80.80
64652;HTU21D;51062;45.120;37.660;2024-01-30T04:53:07;-4.19;80.81
64652;HTU21D;51062;45.120;37.660;2024-01-30T04:55:34;-4.20;80.85
64652;HTU21D;51062;45.120;37.660;2024-01-30T04:58:01;-4.19;80.89
64652;HTU21D;51062;45.120;37.660;2024-01-30T05:00:27;-4.20;80.94
64652;HTU21D;51062;45.120;37.660;2024-01-30T05:02:54;-4.21;80.99
64652;HTU21D;51062;45.120;37.660;2024-01-30T05:05:20;-4.19;81.03
64652;HTU21D;51062;45.120;37.660;2024-01-30T05:07:47;-4.15;81.04
64652;HTU21D;51062;45.120;37.660;2024-01-30T05:10:13;-4.12;81.02
64652;HTU21D;51062;45.120;37.660;2024-01-30T05:12:39;-4.11;81.03
64652;HTU21D;51062;45.120;37.660;2024-01-30T05:15:05;-4.09;81.01
64652;HTU21D;51062;45.120;37.660;2024-01-30T05:17:31;-4.07;81.03
64652;HTU21D;51062;45.120;37.660;2024-01-30T05:19:58;-4.02;81.04
64652;HTU21D;51062;45.120;37.660;2024-01-30T05:22:24;-3.99;81.03
64652;HTU21D;51062;45.120;37.660;2024-01-30T05:24:50;-3.96;80.97
64652;HTU21D;51062;45.120;37.660;2024-01-30T05:27:16;-3.94;80.97
64652;HTU21D;51062;45.120;37.660;2024-01-30T05:29:42;-3.93;80.96
64652;HTU21D;51062;45.120;37.660;2024-01-30T05:32:08;-3.90;80.96
64652;HTU21D;51062;45.120;37.660;2024-01-30T05:34:35;-3.85;80.94
64652;HTU21D;51062;45.120;37.660;2024-01-30T05:37:00;-3.83;80.90
64652;HTU21D;51062;45.120;37.660;2024-01-30T05:39:26;-3.78;81.03
64652;HTU21D;51062;45.120;37.660;2024-01-30T05:41:52;-3.52;81.41
64652;HTU21D;51062;45.120;37.660;2024-01-30T05:44:18;-3.36;80.73
64652;HTU21D;51062;45.120;37.660;2024-01-30T05:46:44;-3.17;81.11
64652;HTU21D;51062;45.120;37.660;2024-01-30T05:49:10;-2.76;81.08
64652;HTU21D;51062;45.120;37.660;2024-01-30T05:51:36;-2.38;80.40
64652;HTU21D;51062;45.120;37.660;2024-01-30T05:54:02;-2.17;79.46
64652;HTU21D;51062;45.120;37.660;2024-01-30T05:56:29;-2.01;79.55
64652;HTU21D;51062;45.120;37.660;2024-01-30T05:58:55;-2.03;78.86
64652;HTU21D;51062;45.120;37.660;2024-01-30T06:01:21;-1.94;79.24
64652;HTU21D;51062;45.120;37.660;2024-01-30T06:03:47;-1.95;79.04
64652;HTU21D;51062;45.120;37.660;2024-01-30T06:06:13;-1.91;79.26
64652;HTU21D;51062;45.120;37.660;2024-01-30T06:08:39;-1.99;78.72
64652;HTU21D;51062;45.120;37.660;2024-01-30T06:11:04;-2.13;78.70
64652;HTU21D;51062;45.120;37.660;2024-01-30T06:13:31;-2.32;78.84
64652;HTU21D;51062;45.120;37.660;2024-01-30T06:15:57;-2.43;79.18
64652;HTU21D;51062;45.120;37.660;2024-01-30T06:18:23;-2.49;79.31
64652;HTU21D;51062;45.120;37.660;2024-01-30T06:20:49;-2.48;79.59
64652;HTU21D;51062;45.120;37.660;2024-01-30T06:23:15;-2.01;80.27
64652;HTU21D;51062;45.120;37.660;2024-01-30T06:25:41;-1.28;78.80
64652;HTU21D;51062;45.120;37.660;2024-01-30T06:28:07;-0.83;77.95
64652;HTU21D;51062;45.120;37.660;2024-01-30T06:30:33;-0.20;77.77
64652;HTU21D;51062;45.120;37.660;2024-01-30T06:32:59;0.30;76.62
64652;HTU21D;51062;45.120;37.660;2024-01-30T06:35:25;0.31;75.60
64652;HTU21D;51062;45.120;37.660;2024-01-30T06:37:50;0.17;76.35
64652;HTU21D;51062;45.120;37.660;2024-01-30T06:40:16;0.47;76.33
64652;HTU21D;51062;45.120;37.660;2024-01-30T06:42:42;0.97;75.71
64652;HTU21D;51062;45.120;37.660;2024-01-30T06:45:08;1.52;75.16
64652;HTU21D;51062;45.120;37.660;2024-01-30T06:47:34;1.96;74.38
64652;HTU21D;51062;45.120;37.660;2024-01-30T06:50:00;2.35;73.64
64652;HTU21D;51062;45.120;37.660;2024-01-30T06:52:27;2.51;72.59
64652;HTU21D;51062;45.120;37.660;2024-01-30T06:54:53;2.56;72.85
64652;HTU21D;51062;45.120;37.660;2024-01-30T06:57:20;2.69;72.88
64652;HTU21D;51062;45.120;37.660;2024-01-30T06:59:46;2.83;73.00
64652;HTU21D;51062;45.120;37.660;2024-01-30T07:02:12;2.87;72.34
64652;HTU21D;51062;45.120;37.660;2024-01-30T07:04:38;2.88;72.27
64652;HTU21D;51062;45.120;37.660;2024-01-30T07:07:05;2.99;72.02
64652;HTU21D;51062;45.120;37.660;2024-01-30T07:09:31;3.17;71.68
64652;HTU21D;51062;45.120;37.660;2024-01-30T07:11:57;3.04;71.59
64652;HTU21D;51062;45.120;37.660;2024-01-30T07:14:26;3.04;71.05
64652;HTU21D;51062;45.120;37.660;2024-01-30T07:16:52;2.52;71.28
64652;HTU21D;51062;45.120;37.660;2024-01-30T07:19:17;1.82;71.77
64652;HTU21D;51062;45.120;37.660;2024-01-30T07:21:43;1.20;73.23
64652;HTU21D;51062;45.120;37.660;2024-01-30T07:24:09;0.98;74.54
64652;HTU21D;51062;45.120;37.660;2024-01-30T07:26:35;1.24;75.22
64652;HTU21D;51062;45.120;37.660;2024-01-30T07:29:01;1.91;73.77
64652;HTU21D;51062;45.120;37.660;2024-01-30T07:31:27;2.66;72.96
64652;HTU21D;51062;45.120;37.660;2024-01-30T07:33:53;3.40;72.09
64652;HTU21D;51062;45.120;37.660;2024-01-30T07:36:20;3.85;70.98
64652;HTU21D;51062;45.120;37.660;2024-01-30T07:38:46;3.88;70.79
64652;HTU21D;51062;45.120;37.660;2024-01-30T07:41:12;3.90;70.63
64652;HTU21D;51062;45.120;37.660;2024-01-30T07:43:38;3.74;70.97
64652;HTU21D;51062;45.120;37.660;2024-01-30T07:46:04;3.69;71.51
64652;HTU21D;51062;45.120;37.660;2024-01-30T07:48:32;3.74;70.84
64652;HTU21D;51062;45.120;37.660;2024-01-30T07:50:59;3.41;71.00
64652;HTU21D;51062;45.120;37.660;2024-01-30T07:53:25;3.36;71.19
64652;HTU21D;51062;45.120;37.660;2024-01-30T07:55:52;3.10;70.52
64652;HTU21D;51062;45.120;37.660;2024-01-30T07:58:17;2.70;71.46
64652;HTU21D;51062;45.120;37.660;2024-01-30T08:00:44;2.57;72.16
64652;HTU21D;51062;45.120;37.660;2024-01-30T08:03:10;2.55;72.22
64652;HTU21D;51062;45.120;37.660;2024-01-30T08:05:36;2.95;71.85
64652;HTU21D;51062;45.120;37.660;2024-01-30T08:08:03;3.24;71.05
64652;HTU21D;51062;45.120;37.660;2024-01-30T08:10:29;3.38;70.62
64652;HTU21D;51062;45.120;37.660;2024-01-30T08:12:55;3.42;70.59
64652;HTU21D;51062;45.120;37.660;2024-01-30T08:15:21;3.42;70.35
64652;HTU21D;51062;45.120;37.660;2024-01-30T08:17:47;3.41;70.32
64652;HTU21D;51062;45.120;37.660;2024-01-30T08:20:13;3.36;70.21
64652;HTU21D;51062;45.120;37.660;2024-01-30T08:22:39;3.30;70.24
64652;HTU21D;51062;45.120;37.660;2024-01-30T08:25:08;3.42;70.25
64652;HTU21D;51062;45.120;37.660;2024-01-30T08:27:35;3.40;69.89
64652;HTU21D;51062;45.120;37.660;2024-01-30T08:30:04;3.33;69.75
64652;HTU21D;51062;45.120;37.660;2024-01-30T08:32:30;3.40;69.16
64652;HTU21D;51062;45.120;37.660;2024-01-30T08:34:56;3.30;68.75
64652;HTU21D;51062;45.120;37.660;2024-01-30T08:37:22;2.97;68.60
64652;HTU21D;51062;45.120;37.660;2024-01-30T08:39:48;2.28;69.21
64652;HTU21D;51062;45.120;37.660;2024-01-30T08:42:14;1.67;70.55
64652;HTU21D;51062;45.120;37.660;2024-01-30T08:44:40;1.16;71.29
64652;HTU21D;51062;45.120;37.660;2024-01-30T08:47:06;0.74;72.08
64652;HTU21D;51062;45.120;37.660;2024-01-30T08:49:32;0.49;72.69
64652;HTU21D;51062;45.120;37.660;2024-01-30T08:51:58;0.28;73.20
64652;HTU21D;51062;45.120;37.660;2024-01-30T08:54:24;0.20;73.77
64652;HTU21D;51062;45.120;37.660;2024-01-30T08:56:50;0.14;73.93
64652;HTU21D;51062;45.120;37.660;2024-01-30T08:59:17;0.06;74.08
64652;HTU21D;51062;45.120;37.660;2024-01-30T09:01:44;0.04;74.15
64652;HTU21D;51062;45.120;37.660;2024-01-30T09:04:09;-0.02;74.06
64652;HTU21D;51062;45.120;37.660;2024-01-30T09:06:35;-0.06;74.22
64652;HTU21D;51062;45.120;37.660;2024-01-30T09:09:01;-0.09;74.22
64652;HTU21D;51062;45.120;37.660;2024-01-30T09:11:27;-0.09;74.43
64652;HTU21D;51062;45.120;37.660;2024-01-30T09:13:53;-0.08;74.42
64652;HTU21D;51062;45.120;37.660;2024-01-30T09:16:19;-0.02;74.47
64652;HTU21D;51062;45.120;37.660;2024-01-30T09:18:45;0.01;74.44
64652;HTU21D;51062;45.120;37.660;2024-01-30T09:21:11;-0.00;74.30
64652;HTU21D;51062;45.120;37.660;2024-01-30T09:23:38;0.02;74.49
64652;HTU21D;51062;45.120;37.660;2024-01-30T09:26:04;0.06;74.44
64652;HTU21D;51062;45.120;37.660;2024-01-30T09:28:30;0.08;74.39
64652;HTU21D;51062;45.120;37.660;2024-01-30T09:30:55;0.14;74.47
64652;HTU21D;51062;45.120;37.660;2024-01-30T09:33:21;0.19;74.38
64652;HTU21D;51062;45.120;37.660;2024-01-30T09:35:47;0.23;74.46
64652;HTU21D;51062;45.120;37.660;2024-01-30T09:38:13;0.25;74.31
64652;HTU21D;51062;45.120;37.660;2024-01-30T09:40:39;0.27;74.35
64652;HTU21D;51062;45.120;37.660;2024-01-30T09:43:07;0.32;74.56
64652;HTU21D;51062;45.120;37.660;2024-01-30T09:45:33;0.38;74.42
64652;HTU21D;51062;45.120;37.660;2024-01-30T09:47:59;0.40;74.11
64652;HTU21D;51062;45.120;37.660;2024-01-30T09:50:26;0.43;74.17
64652;HTU21D;51062;45.120;37.660;2024-01-30T09:52:52;0.47;74.32
64652;HTU21D;51062;45.120;37.660;2024-01-30T09:55:20;0.57;74.38
64652;HTU21D;51062;45.120;37.660;2024-01-30T09:57:46;0.62;74.31
64652;HTU21D;51062;45.120;37.660;2024-01-30T10:00:12;0.67;74.38
64652;HTU21D;51062;45.120;37.660;2024-01-30T10:02:39;0.74;74.36
64652;HTU21D;51062;45.120;37.660;2024-01-30T10:05:05;0.76;74.35
64652;HTU21D;51062;45.120;37.660;2024-01-30T10:07:31;0.80;74.40
64652;HTU21D;51062;45.120;37.660;2024-01-30T10:09:57;0.83;74.30
64652;HTU21D;51062;45.120;37.660;2024-01-30T10:12:23;0.86;74.28
64652;HTU21D;51062;45.120;37.660;2024-01-30T10:14:49;0.88;74.39
64652;HTU21D;51062;45.120;37.660;2024-01-30T10:17:15;0.92;74.40
64652;HTU21D;51062;45.120;37.660;2024-01-30T10:19:41;0.94;74.09
64652;HTU21D;51062;45.120;37.660;2024-01-30T10:22:07;0.92;73.99
64652;HTU21D;51062;45.120;37.660;2024-01-30T10:24:33;0.93;74.12
64652;HTU21D;51062;45.120;37.660;2024-01-30T10:26:59;0.95;74.16
64652;HTU21D;51062;45.120;37.660;2024-01-30T10:29:26;0.96;74.09
64652;HTU21D;51062;45.120;37.660;2024-01-30T10:31:59;0.99;73.96
64652;HTU21D;51062;45.120;37.660;2024-01-30T10:34:25;0.97;73.64
64652;HTU21D;51062;45.120;37.660;2024-01-30T10:36:55;0.97;73.64
64652;HTU21D;51062;45.120;37.660;2024-01-30T10:39:24;0.96;73.73
64652;HTU21D;51062;45.120;37.660;2024-01-30T10:41:51;1.01;73.64
64652;HTU21D;51062;45.120;37.660;2024-01-30T10:44:21;1.02;73.50
64652;HTU21D;51062;45.120;37.660;2024-01-30T10:46:49;1.03;73.45
64652;HTU21D;51062;45.120;37.660;2024-01-30T10:49:16;1.05;73.45
64652;HTU21D;51062;45.120;37.660;2024-01-30T10:51:42;1.06;73.30
64652;HTU21D;51062;45.120;37.660;2024-01-30T10:54:08;1.08;73.31
64652;HTU21D;51062;45.120;37.660;2024-01-30T10:56:35;1.08;73.04
64652;HTU21D;51062;45.120;37.660;2024-01-30T10:59:01;1.10;73.11
64652;HTU21D;51062;45.120;37.660;2024-01-30T11:01:27;1.11;73.02
64652;HTU21D;51062;45.120;37.660;2024-01-30T11:03:54;1.16;73.10
64652;HTU21D;51062;45.120;37.660;2024-01-30T11:06:23;1.20;73.09
64652;HTU21D;51062;45.120;37.660;2024-01-30T11:09:02;1.23;72.84
64652;HTU21D;51062;45.120;37.660;2024-01-30T11:11:48;1.23;72.61
64652;HTU21D;51062;45.120;37.660;2024-01-30T11:14:14;1.26;72.69
64652;HTU21D;51062;45.120;37.660;2024-01-30T11:16:40;1.29;72.70
64652;HTU21D;51062;45.120;37.660;2024-01-30T11:19:10;1.33;72.61
64652;HTU21D;51062;45.120;37.660;2024-01-30T11:21:42;1.36;72.71
64652;HTU21D;51062;45.120;37.660;2024-01-30T11:24:09;1.37;72.58
64652;HTU21D;51062;45.120;37.660;2024-01-30T11:26:35;1.36;72.52
64652;HTU21D;51062;45.120;37.660;2024-01-30T11:29:03;1.40;72.61
64652;HTU21D;51062;45.120;37.660;2024-01-30T11:31:32;1.41;72.44
64652;HTU21D;51062;45.120;37.660;2024-01-30T11:33:59;1.42;72.43
64652;HTU21D;51062;45.120;37.660;2024-01-30T11:36:26;1.43;72.48
64652;HTU21D;51062;45.120;37.660;2024-01-30T11:38:52;1.43;72.54
64652;HTU21D;51062;45.120;37.660;2024-01-30T11:41:18;1.46;72.29
64652;HTU21D;51062;45.120;37.660;2024-01-30T11:43:51;1.45;72.32
64652;HTU21D;51062;45.120;37.660;2024-01-30T11:46:17;1.45;72.26
64652;HTU21D;51062;45.120;37.660;2024-01-30T11:48:43;1.43;72.27
64652;HTU21D;51062;45.120;37.660;2024-01-30T11:51:09;1.46;72.35
64652;HTU21D;51062;45.120;37.660;2024-01-30T11:53:35;1.45;72.26
64652;HTU21D;51062;45.120;37.660;2024-01-30T11:56:00;1.45;72.24
64652;HTU21D;51062;45.120;37.660;2024-01-30T11:58:26;1.47;72.34
64652;HTU21D;51062;45.120;37.660;2024-01-30T12:00:55;1.48;72.21
64652;HTU21D;51062;45.120;37.660;2024-01-30T12:03:21;1.51;72.25
64652;HTU21D;51062;45.120;37.660;2024-01-30T12:05:54;1.54;72.16
64652;HTU21D;51062;45.120;37.660;2024-01-30T12:08:20;1.53;71.88
64652;HTU21D;51062;45.120;37.660;2024-01-30T12:10:46;1.52;71.88
64652;HTU21D;51062;45.120;37.660;2024-01-30T12:13:20;1.52;71.87
64652;HTU21D;51062;45.120;37.660;2024-01-30T12:15:46;1.51;72.04
64652;HTU21D;51062;45.120;37.660;2024-01-30T12:18:12;1.54;72.09
64652;HTU21D;51062;45.120;37.660;2024-01-30T12:20:38;1.56;72.10
64652;HTU21D;51062;45.120;37.660;2024-01-30T12:23:04;1.54;71.83
64652;HTU21D;51062;45.120;37.660;2024-01-30T12:25:30;1.54;71.65
64652;HTU21D;51062;45.120;37.660;2024-01-30T12:27:56;1.52;71.61
64652;HTU21D;51062;45.120;37.660;2024-01-30T12:30:23;1.53;71.66
64652;HTU21D;51062;45.120;37.660;2024-01-30T12:32:49;1.53;71.64
64652;HTU21D;51062;45.120;37.660;2024-01-30T12:35:17;1.54;71.52
64652;HTU21D;51062;45.120;37.660;2024-01-30T12:37:43;1.54;71.55
64652;HTU21D;51062;45.120;37.660;2024-01-30T12:40:10;1.54;71.58
64652;HTU21D;51062;45.120;37.660;2024-01-30T12:42:36;1.54;71.64
64652;HTU21D;51062;45.120;37.660;2024-01-30T12:45:03;1.55;71.68
64652;HTU21D;51062;45.120;37.660;2024-01-30T12:47:30;1.55;71.74
64652;HTU21D;51062;45.120;37.660;2024-01-30T12:49:56;1.54;71.55
64652;HTU21D;51062;45.120;37.660;2024-01-30T12:52:22;1.54;71.61
64652;HTU21D;51062;45.120;37.660;2024-01-30T12:54:48;1.52;71.69
64652;HTU21D;51062;45.120;37.660;2024-01-30T12:57:14;1.53;71.43
64652;HTU21D;51062;45.120;37.660;2024-01-30T12:59:40;1.52;71.38
64652;HTU21D;51062;45.120;37.660;2024-01-30T13:02:06;1.50;71.49
64652;HTU21D;51062;45.120;37.660;2024-01-30T13:04:32;1.50;71.42
64652;HTU21D;51062;45.120;37.660;2024-01-30T13:06:58;1.49;71.50
64652;HTU21D;51062;45.120;37.660;2024-01-30T13:09:26;1.49;71.62
64652;HTU21D;51062;45.120;37.660;2024-01-30T13:11:52;1.48;71.61
64652;HTU21D;51062;45.120;37.660;2024-01-30T13:14:18;1.49;71.58
64652;HTU21D;51062;45.120;37.660;2024-01-30T13:16:44;1.47;71.48
64652;HTU21D;51062;45.120;37.660;2024-01-30T13:19:10;1.45;71.48
64652;HTU21D;51062;45.120;37.660;2024-01-30T13:21:36;1.43;71.56
64652;HTU21D;51062;45.120;37.660;2024-01-30T13:24:03;1.41;71.67
64652;HTU21D;51062;45.120;37.660;2024-01-30T13:26:29;1.40;71.80
64652;HTU21D;51062;45.120;37.660;2024-01-30T13:28:56;1.37;71.90
64652;HTU21D;51062;45.120;37.660;2024-01-30T13:31:22;1.34;72.02
64652;HTU21D;51062;45.120;37.660;2024-01-30T13:33:48;1.29;72.14
64652;HTU21D;51062;45.120;37.660;2024-01-30T13:36:14;1.27;72.21
64652;HTU21D;51062;45.120;37.660;2024-01-30T13:38:40;1.24;72.29
64652;HTU21D;51062;45.120;37.660;2024-01-30T13:41:07;1.20;72.38
64652;HTU21D;51062;45.120;37.660;2024-01-30T13:43:33;1.16;72.46
64652;HTU21D;51062;45.120;37.660;2024-01-30T13:45:59;1.12;72.57
64652;HTU21D;51062;45.120;37.660;2024-01-30T13:48:25;1.07;72.66
64652;HTU21D;51062;45.120;37.660;2024-01-30T13:50:51;1.03;72.74
64652;HTU21D;51062;45.120;37.660;2024-01-30T13:53:17;0.97;72.80
64652;HTU21D;51062;45.120;37.660;2024-01-30T13:55:43;0.91;72.86
64652;HTU21D;51062;45.120;37.660;2024-01-30T13:58:09;0.86;72.94
64652;HTU21D;51062;45.120;37.660;2024-01-30T14:00:35;0.80;73.06
64652;HTU21D;51062;45.120;37.660;2024-01-30T14:03:01;0.74;73.12
64652;HTU21D;51062;45.120;37.660;2024-01-30T14:05:29;0.67;73.22
64652;HTU21D;51062;45.120;37.660;2024-01-30T14:07:55;0.63;73.29
64652;HTU21D;51062;45.120;37.660;2024-01-30T14:10:21;0.58;73.35
64652;HTU21D;51062;45.120;37.660;2024-01-30T14:12:47;0.51;73.41
64652;HTU21D;51062;45.120;37.660;2024-01-30T14:15:14;0.46;73.49
64652;HTU21D;51062;45.120;37.660;2024-01-30T14:17:47;0.37;73.60
64652;HTU21D;51062;45.120;37.660;2024-01-30T14:20:14;0.33;73.70
64652;HTU21D;51062;45.120;37.660;2024-01-30T14:22:42;0.30;73.77
64652;HTU21D;51062;45.120;37.660;2024-01-30T14:25:08;0.25;73.84
64652;HTU21D;51062;45.120;37.660;2024-01-30T14:27:34;0.20;73.87
64652;HTU21D;51062;45.120;37.660;2024-01-30T14:30:00;0.15;73.93
64652;HTU21D;51062;45.120;37.660;2024-01-30T14:32:26;0.09;74.01
64652;HTU21D;51062;45.120;37.660;2024-01-30T14:34:52;0.06;74.09
64652;HTU21D;51062;45.120;37.660;2024-01-30T14:37:19;0.01;74.12
64652;HTU21D;51062;45.120;37.660;2024-01-30T14:39:45;-0.05;74.18
64652;HTU21D;51062;45.120;37.660;2024-01-30T14:42:11;-0.08;74.25
64652;HTU21D;51062;45.120;37.660;2024-01-30T14:44:37;-0.13;74.26
64652;HTU21D;51062;45.120;37.660;2024-01-30T14:47:05;-0.19;74.34
64652;HTU21D;51062;45.120;37.660;2024-01-30T14:49:31;-0.23;74.42
64652;HTU21D;51062;45.120;37.660;2024-01-30T14:51:57;-0.27;74.50
64652;HTU21D;51062;45.120;37.660;2024-01-30T14:54:24;-0.30;74.53
64652;HTU21D;51062;45.120;37.660;2024-01-30T14:56:51;-0.34;74.54
64652;HTU21D;51062;45.120;37.660;2024-01-30T14:59:17;-0.38;74.60
64652;HTU21D;51062;45.120;37.660;2024-01-30T15:01:43;-0.41;74.68
64652;HTU21D;51062;45.120;37.660;2024-01-30T15:04:10;-0.45;74.71